Address 0x6f224818620608381a5b895ace58480b826448f6 9

Txn Hash Method
Block
From
To
Value [Txn Fee]
0x142f5cf87a43d454cb8585e158512b07649b7d74b9a31b341aeb9c8c8ec8de030x6549920d139298372022-09-25 12:46:403 days 21 hrs ago0x6f224818620608381a5b895ace58480b826448f6OUT0x2e1d0c56c6913fd6135f887080f7a14123a142a80 AVAX0.022711602625 34.085179359
0xcd45422c6f75454f466033430e5dc0f16f9b61db55ad735de0485181fdece28f0xbef1e500139298222022-09-25 12:46:093 days 21 hrs ago0x6f224818620608381a5b895ace58480b826448f6OUT0x2e1d0c56c6913fd6135f887080f7a14123a142a80 AVAX0.010015984979 35.225381512
0x4b31b4b98b3fb0aacfeb63a6da29a30f2aeeb54a2058ef3e38cd314773ce71e4Harvest139297862022-09-25 12:44:573 days 21 hrs ago0x6f224818620608381a5b895ace58480b826448f6OUT0x951accccfdf619d3cd8cfe0e4823d8e80354eb410 AVAX0.003072249055 37.501666879
0xcc6ab2f475e0682f818422b1a29cb2f528b035fc3b4cc8d22ec096ff22ea457a0xab07211e139297652022-09-25 12:44:153 days 21 hrs ago0x6f224818620608381a5b895ace58480b826448f6OUT0x2e1d0c56c6913fd6135f887080f7a14123a142a80 AVAX0.00851970657 37.715339295
0x0805181417aee70b84dedf71e055ffec5dc1c550ea2d176885a406d4e9d0d2a60x4ea4c6b3139297512022-09-25 12:43:483 days 21 hrs ago0x6f224818620608381a5b895ace58480b826448f6OUT0x2e1d0c56c6913fd6135f887080f7a14123a142a80 AVAX0.008356747943 37.145889662
0xe2539ccbe47fa01fb40a5b25e924ee948aaa02dad14da808d49586bc630fb322Claim Reward139297302022-09-25 12:43:053 days 21 hrs ago0x6f224818620608381a5b895ace58480b826448f6OUT0x41102fb90121896e52868c0882dcbc74f9ca76060 AVAX0.003214767218 36.098671812
0xa1f9301e268958512dea29611a18532a33fdc1a69cd8b216508845b2f189d8b80x6549920d138858422022-09-24 13:20:564 days 21 hrs ago0x6f224818620608381a5b895ace58480b826448f6OUT0x2e1d0c56c6913fd6135f887080f7a14123a142a80 AVAX0.020423028976 30.650343717
0x982a89272c00ff165880cce5cd6709a2308be4b34d05d5d72d9c507ba1cbb9ddApprove138858262022-09-24 13:20:244 days 21 hrs ago0x6f224818620608381a5b895ace58480b826448f6OUT0x128e174b7206a0beb599806d27c355fab1c9af8b0 AVAX0.001394154763 30.091186541
0x388dddbe648923b711f3da3a044fc64985935a070365a22dbb60e892dd093bdbMint138858032022-09-24 13:19:394 days 21 hrs ago0x6f224818620608381a5b895ace58480b826448f6OUT0x128e174b7206a0beb599806d27c355fab1c9af8b0 AVAX0.001809853551 30.843817977
0x212ddb3cdbd2ebb6f45e1c6cadc34952de86da3ac815a61f98770addf1adcc31Harvest138857882022-09-24 13:19:084 days 21 hrs ago0x6f224818620608381a5b895ace58480b826448f6OUT0x951accccfdf619d3cd8cfe0e4823d8e80354eb410 AVAX0.002488177804 30.417821566
0x32369f1b6d6a6ad7ece22af1541601615ea200c2427c0c5d31d1f3535e558c520x4ea4c6b3138857682022-09-24 13:18:284 days 21 hrs ago0x6f224818620608381a5b895ace58480b826448f6OUT0x2e1d0c56c6913fd6135f887080f7a14123a142a80 AVAX0.008552217101 31.058087542
0xc0bb248d720c5a179419d20e10cecd0dfa31a42ce37f47355d020cdf255d47e10x8a6655d6138857472022-09-24 13:17:464 days 21 hrs ago0x6f224818620608381a5b895ace58480b826448f6OUT0x41102fb90121896e52868c0882dcbc74f9ca76060 AVAX0.003595360887 29.415679865
0xcd633fff976012b6644a5fb04ead0f9ab64ae67f171431e91ae850bed2543578Claim138775362022-09-24 8:44:055 days 1 hr ago0x6f224818620608381a5b895ace58480b826448f6OUT0xba818c3a8c961e22be7b399b14cd384c08dd94a90 AVAX0.0018661775 27.5
0x79069c0db23fc8c7c14fe2c2bc86945f5d92a3a6aa8cfeb6949b05f24718e6500x6549920d138391582022-09-23 11:23:555 days 22 hrs ago0x6f224818620608381a5b895ace58480b826448f6OUT0x2e1d0c56c6913fd6135f887080f7a14123a142a80 AVAX0.019128897964 31.406370565
0x8ac4ef53f2c754107639ce0943428b275c24da9a2c6d02add228d471e5945a38Harvest138391252022-09-23 11:22:495 days 23 hrs ago0x6f224818620608381a5b895ace58480b826448f6OUT0x951accccfdf619d3cd8cfe0e4823d8e80354eb410 AVAX0.002562305533 31.276998317
0x40880d72129e5ed5cea38457bd3f55da00dff1a889dce7c7103c4b9957ad23890x8a6655d6138390872022-09-23 11:21:335 days 23 hrs ago0x6f224818620608381a5b895ace58480b826448f6OUT0xba818c3a8c961e22be7b399b14cd384c08dd94a90 AVAX0.003587950322 30.575821269
0x70ee32aaba9b3c2307f78c2a4d2fd46cd53139f671d1d6f8f966dab7fc2b2b820xbef1e500138337412022-09-23 8:23:186 days 1 hr ago0x6f224818620608381a5b895ace58480b826448f6OUT0x2e1d0c56c6913fd6135f887080f7a14123a142a80 AVAX0.00781935 27.5
0xedc59e2ae3122f6e80dd6b241142d203732163d2b993b7f4fdc2fe34457cf19e0xbef1e500138337232022-09-23 8:22:426 days 2 hrs ago0x6f224818620608381a5b895ace58480b826448f6OUT0x2e1d0c56c6913fd6135f887080f7a14123a142a80 AVAX0.00781935 27.5
0x642d1fac567f318d181c2818f6d4e65c052d9a32daead6a67a5303df5542669bClaim Reward138280732022-09-23 5:14:146 days 5 hrs ago0x6f224818620608381a5b895ace58480b826448f6OUT0x41102fb90121896e52868c0882dcbc74f9ca76060 AVAX0.002668143185 29.960621927
0x7546c3521bb8e20fd90e9347d0202ade13d16f972945ab9dbf35fbd151a58eb70x6549920d137969812022-09-22 11:52:466 days 22 hrs ago0x6f224818620608381a5b895ace58480b826448f6OUT0x2e1d0c56c6913fd6135f887080f7a14123a142a80 AVAX0.0172195375 27.5
0x38ac87b58ee27076c0ed47ac1532b83c848d8e0a3407b6a7a29feb2879d998c7Approve137969652022-09-22 11:52:136 days 22 hrs ago0x6f224818620608381a5b895ace58480b826448f6OUT0x0faf4bf0bf669cad5a3ce24839abc9d143d0cb7e0 AVAX0.0012741025 27.5
0x5b37155920d06e505ad66ad59b32b3edbc978043d552b857f0576de191d3b311Mint137969522022-09-22 11:51:486 days 22 hrs ago0x6f224818620608381a5b895ace58480b826448f6OUT0x0faf4bf0bf669cad5a3ce24839abc9d143d0cb7e0 AVAX0.001613645 27.5
0x9a8ae356281564273e55946c2ae6b170ff7524b9423c282f3a87ad268d090377Harvest137969352022-09-22 11:51:146 days 22 hrs ago0x6f224818620608381a5b895ace58480b826448f6OUT0x951accccfdf619d3cd8cfe0e4823d8e80354eb410 AVAX0.0027231325 27.5
0xd9cdf1db8fa8ba1fd416e194481475a77ffacf83bcf0642e643a006ef6a055c30x4ea4c6b3137969222022-09-22 11:50:486 days 22 hrs ago0x6f224818620608381a5b895ace58480b826448f6OUT0x2e1d0c56c6913fd6135f887080f7a14123a142a80 AVAX0.007572455 27.5
0x3d31c3241132fae76e1f2d79a6682cdc79a35e3b6df061c125afc767b8be61bf0x8a6655d6137968902022-09-22 11:49:446 days 22 hrs ago0x6f224818620608381a5b895ace58480b826448f6OUT0x41102fb90121896e52868c0882dcbc74f9ca76060 AVAX0.003361215 27.5
[ Download CSV Export 
Parent Txn Hash Block From To Value
Loading

Contract Name:
0

Compiler Version
0

Optimization Enabled:
0

Other Settings:
-NA-
Block Transaction Gas Used Reward
Age Block Fee Address BC Fee Address Voting Power Jailed Incoming
Block Uncle Number Difficulty Gas Used Reward
Loading